Time;durP1;ratioP1;P1;durP2;ratioP2;P2;SDS_P1;SDS_P2;PMS_P1;PMS_P2;Temp;Humidity;BMP_temperature;BMP_pressure;BME280_temperature;BME280_humidity;BME280_pressure;Samples;Min_cycle;Max_cycle;Signal;HPM_P1;HPM_P2
2022/07/29 00:01:32;;;;;;;3.58;1.70;;;18.90;99.90;;;;;;5010599;28;20046;-72
2022/07/29 00:03:58;;;;;;;2.80;1.80;;;18.90;99.90;;;;;;5010555;28;20014;-73
2022/07/29 00:06:23;;;;;;;4.05;2.00;;;18.80;99.90;;;;;;5010955;28;20060;-72
2022/07/29 00:08:49;;;;;;;4.30;2.10;;;18.80;99.90;;;;;;5010392;28;20061;-72
2022/07/29 00:11:14;;;;;;;3.60;1.92;;;18.80;99.90;;;;;;5011419;28;20022;-72
2022/07/29 00:13:40;;;;;;;4.65;1.90;;;18.80;99.90;;;;;;4992765;28;20038;-72
2022/07/29 00:16:05;;;;;;;4.43;2.20;;;18.80;99.90;;;;;;5010697;28;20071;-72
2022/07/29 00:18:31;;;;;;;4.10;1.92;;;18.70;99.90;;;;;;5011100;28;20045;-72
2022/07/29 00:20:57;;;;;;;2.55;1.63;;;18.70;99.90;;;;;;5011071;28;20112;-73
2022/07/29 00:23:22;;;;;;;3.15;1.75;;;18.70;99.90;;;;;;5011500;28;20063;-73
2022/07/29 00:25:48;;;;;;;4.38;2.08;;;18.70;99.90;;;;;;5014206;28;20033;-73
2022/07/29 00:28:13;;;;;;;3.80;1.90;;;18.70;99.90;;;;;;5014413;28;20026;-72
2022/07/29 00:30:41;;;;;;;3.42;1.80;;;18.70;99.90;;;;;;5014678;28;20374;-72
2022/07/29 00:33:07;;;;;;;3.63;2.05;;;18.70;99.90;;;;;;5014785;28;20022;-72
2022/07/29 00:35:44;;;;;;;4.20;2.35;;;18.70;99.90;;;;;;5014100;28;20448;-72
2022/07/29 00:38:15;;;;;;;4.72;2.30;;;18.70;99.90;;;;;;5013816;28;20662;-73
2022/07/29 00:40:41;;;;;;;2.78;1.80;;;18.60;99.90;;;;;;5014237;28;20029;-73
2022/07/29 00:43:07;;;;;;;3.20;1.80;;;18.60;99.90;;;;;;5013997;28;20030;-72
2022/07/29 00:45:33;;;;;;;5.70;2.25;;;18.60;99.90;;;;;;5014019;28;20486;-72
2022/07/29 00:47:59;;;;;;;3.08;1.80;;;18.60;99.90;;;;;;5014135;28;20022;-71
2022/07/29 00:50:25;;;;;;;2.58;1.67;;;18.70;99.90;;;;;;5014250;28;20030;-71
2022/07/29 00:52:52;;;;;;;5.97;2.25;;;18.60;99.90;;;;;;5013990;28;20018;-72
2022/07/29 00:55:18;;;;;;;2.55;1.95;;;18.60;99.90;;;;;;5013841;28;20022;-72
2022/07/29 00:57:45;;;;;;;3.55;2.08;;;18.60;99.90;;;;;;5013938;28;20029;-73
2022/07/29 01:00:22;;;;;;;3.17;2.10;;;18.60;99.90;;;;;;5013362;28;20026;-73
2022/07/29 01:02:48;;;;;;;2.92;1.90;;;18.60;99.90;;;;;;5013935;28;20034;-72
2022/07/29 01:05:16;;;;;;;5.05;2.28;;;18.60;99.90;;;;;;5013567;28;20029;-73
2022/07/29 01:07:42;;;;;;;3.03;1.92;;;18.50;99.90;;;;;;5014120;28;20478;-73
2022/07/29 01:10:11;;;;;;;4.60;2.03;;;18.50;99.90;;;;;;5013402;28;20084;-73
2022/07/29 01:12:37;;;;;;;2.63;1.83;;;18.50;99.90;;;;;;5013491;28;20108;-72
2022/07/29 01:15:06;;;;;;;3.85;2.00;;;18.50;99.90;;;;;;5013464;28;20092;-72
2022/07/29 01:18:08;;;;;;;2.63;2.00;;;18.50;99.90;;;;;;5027134;28;20397;-72
2022/07/29 01:21:12;;;;;;;3.97;2.00;;;18.50;99.90;;;;;;5013495;28;20153;-72
2022/07/29 01:24:15;;;;;;;4.20;2.03;;;18.50;99.90;;;;;;5003885;28;20485;-72
2022/07/29 01:27:12;;;;;;;2.85;1.80;;;18.40;99.90;;;;;;4999846;28;20030;-71
2022/07/29 01:29:46;;;;;;;2.53;1.73;;;18.40;99.90;;;;;;5013529;28;20095;-72
2022/07/29 01:32:18;;;;;;;2.30;1.83;;;18.40;99.90;;;;;;4995874;28;20056;-72
2022/07/29 01:35:09;;;;;;;2.60;2.00;;;18.40;99.90;;;;;;4994600;28;20034;-72
2022/07/29 01:37:51;;;;;;;3.10;1.77;;;18.30;99.90;;;;;;5013001;28;20032;-72
2022/07/29 01:40:40;;;;;;;2.53;1.80;;;18.30;99.90;;;;;;5011892;28;20532;-73
2022/07/29 01:43:20;;;;;;;2.55;1.80;;;18.30;99.90;;;;;;5015236;28;20026;-73
2022/07/29 01:45:51;;;;;;;2.33;1.55;;;18.30;99.90;;;;;;5028856;28;20053;-74
2022/07/29 01:48:22;;;;;;;2.65;1.60;;;18.30;99.90;;;;;;5014912;28;20026;-73
2022/07/29 01:50:57;;;;;;;3.38;1.60;;;18.30;99.90;;;;;;5021203;28;20120;-74
2022/07/29 01:53:32;;;;;;;1.83;1.50;;;18.30;99.90;;;;;;5031147;28;20480;-73
2022/07/29 01:56:01;;;;;;;2.50;1.77;;;18.40;99.90;;;;;;5021767;28;20030;-73
2022/07/29 01:58:29;;;;;;;2.08;1.70;;;18.30;99.90;;;;;;5027196;28;20108;-73
2022/07/29 02:00:57;;;;;;;2.15;1.90;;;18.30;99.90;;;;;;5031306;28;20103;-73
2022/07/29 02:03:23;;;;;;;2.88;1.70;;;18.30;99.90;;;;;;5031070;28;20104;-73
2022/07/29 02:05:51;;;;;;;2.50;1.73;;;18.30;99.90;;;;;;5031305;28;20620;-73
2022/07/29 02:08:19;;;;;;;2.83;1.80;;;18.30;99.90;;;;;;5018131;28;20146;-74
2022/07/29 02:10:46;;;;;;;4.65;1.80;;;18.30;99.90;;;;;;5030421;28;20018;-74
2022/07/29 02:13:13;;;;;;;2.30;1.75;;;18.30;99.90;;;;;;5019938;28;20030;-74
2022/07/29 02:15:42;;;;;;;2.85;1.77;;;18.20;99.90;;;;;;5024903;28;20105;-74
2022/07/29 02:18:12;;;;;;;2.92;1.73;;;18.20;99.90;;;;;;5020955;28;20033;-74
2022/07/29 02:20:39;;;;;;;2.55;1.60;;;18.20;99.90;;;;;;5031207;28;20025;-74
2022/07/29 02:23:09;;;;;;;3.30;1.75;;;18.20;99.90;;;;;;5015575;28;20029;-74
2022/07/29 02:25:37;;;;;;;2.20;1.80;;;18.10;99.90;;;;;;5019072;28;20022;-74
2022/07/29 02:28:05;;;;;;;2.05;1.83;;;18.10;99.90;;;;;;5033067;28;20021;-74
2022/07/29 02:30:31;;;;;;;2.78;1.65;;;18.10;99.90;;;;;;5015381;28;20033;-74
2022/07/29 02:33:00;;;;;;;3.88;1.90;;;18.10;99.90;;;;;;5032606;28;20014;-75
2022/07/29 02:35:27;;;;;;;3.45;1.70;;;18.10;99.90;;;;;;5032881;28;20072;-74
2022/07/29 02:40:39;;;;;;;1.98;1.73;;;18.00;99.90;;;;;;5032763;28;20111;-74
2022/07/29 02:43:06;;;;;;;5.03;2.10;;;18.00;99.90;;;;;;5014445;28;20183;-74
2022/07/29 02:45:34;;;;;;;2.83;1.90;;;18.00;99.90;;;;;;5031721;28;20097;-74
2022/07/29 02:48:04;;;;;;;3.33;1.90;;;17.90;99.90;;;;;;4999290;28;20032;-73
2022/07/29 02:50:44;;;;;;;2.13;1.63;;;17.90;99.90;;;;;;5030615;28;20029;-74
2022/07/29 02:53:17;;;;;;;5.07;1.90;;;17.80;99.90;;;;;;5017128;28;20029;-74
2022/07/29 02:55:55;;;;;;;2.53;2.17;;;17.80;99.90;;;;;;5030762;28;20374;-74
2022/07/29 02:58:37;;;;;;;4.32;2.10;;;17.60;99.90;;;;;;5030175;28;20083;-74
2022/07/29 03:01:08;;;;;;;2.63;1.83;;;17.60;99.90;;;;;;5030020;28;20142;-74
2022/07/29 03:03:37;;;;;;;2.10;1.80;;;17.50;99.90;;;;;;5030242;28;20026;-74
2022/07/29 03:06:04;;;;;;;3.20;1.95;;;17.40;99.90;;;;;;5030074;28;20057;-74
2022/07/29 03:08:32;;;;;;;3.78;1.90;;;17.40;99.90;;;;;;5030038;28;20107;-73
2022/07/29 03:10:58;;;;;;;4.40;1.83;;;17.30;99.90;;;;;;5029968;28;20029;-73
2022/07/29 03:13:25;;;;;;;2.78;1.98;;;17.30;99.90;;;;;;5029300;28;20079;-73
2022/07/29 03:15:51;;;;;;;3.38;2.20;;;17.30;99.90;;;;;;5030044;28;20026;-73
2022/07/29 03:18:18;;;;;;;4.18;2.30;;;17.20;99.90;;;;;;5029760;28;20037;-73
2022/07/29 03:20:43;;;;;;;3.33;2.45;;;17.20;99.90;;;;;;5015944;28;20136;-73
2022/07/29 03:23:09;;;;;;;3.40;2.50;;;17.10;99.90;;;;;;5029951;28;20025;-73
2022/07/29 03:25:35;;;;;;;3.47;2.30;;;17.10;99.90;;;;;;5029279;28;20021;-73
2022/07/29 03:28:00;;;;;;;4.40;2.45;;;17.10;99.90;;;;;;5029713;28;20021;-73
2022/07/29 03:30:26;;;;;;;2.72;2.03;;;17.00;99.90;;;;;;5029614;28;20486;-74
2022/07/29 03:32:52;;;;;;;3.28;2.20;;;17.00;99.90;;;;;;5030009;28;20040;-74
2022/07/29 03:35:22;;;;;;;3.08;2.35;;;16.90;99.90;;;;;;5029625;28;20100;-74
2022/07/29 03:37:48;;;;;;;3.00;2.10;;;16.90;99.90;;;;;;5012161;28;20026;-74
2022/07/29 03:40:20;;;;;;;3.10;2.03;;;16.90;99.90;;;;;;5029606;28;20040;-74
2022/07/29 03:42:46;;;;;;;4.47;2.53;;;16.90;99.90;;;;;;5029956;28;20051;-73
2022/07/29 03:45:17;;;;;;;3.63;2.22;;;16.80;99.90;;;;;;5029718;28;20112;-73
2022/07/29 03:47:48;;;;;;;5.03;2.45;;;16.80;99.90;;;;;;5016008;28;20033;-73
2022/07/29 03:50:15;;;;;;;4.90;2.40;;;16.80;99.90;;;;;;5029677;28;20047;-74
2022/07/29 03:52:41;;;;;;;3.78;2.50;;;16.80;99.90;;;;;;5029827;28;20029;-74
2022/07/29 03:55:08;;;;;;;4.97;2.45;;;16.80;99.90;;;;;;5029430;28;20029;-74
2022/07/29 03:57:35;;;;;;;3.45;2.40;;;16.70;99.90;;;;;;5029884;28;20041;-74
2022/07/29 04:00:03;;;;;;;6.20;2.30;;;16.70;99.90;;;;;;5032722;28;20113;-74
2022/07/29 04:02:29;;;;;;;7.45;3.00;;;16.70;99.90;;;;;;5033576;28;20056;-74
2022/07/29 04:04:55;;;;;;;3.70;2.65;;;16.60;99.90;;;;;;5033660;28;20108;-74
2022/07/29 04:07:20;;;;;;;4.05;2.40;;;16.70;99.90;;;;;;5033947;28;20026;-74
2022/07/29 04:09:46;;;;;;;3.60;2.33;;;16.70;99.90;;;;;;5033216;28;20029;-74
2022/07/29 04:12:11;;;;;;;4.35;2.80;;;16.70;99.90;;;;;;5033302;28;20029;-74
2022/07/29 04:14:37;;;;;;;3.33;2.67;;;16.80;99.90;;;;;;5032818;28;20034;-67
2022/07/29 04:17:04;;;;;;;3.80;2.50;;;16.80;99.90;;;;;;5027632;28;20112;-68
2022/07/29 04:19:30;;;;;;;5.25;2.67;;;16.80;99.90;;;;;;5028189;28;20394;-68
2022/07/29 04:21:58;;;;;;;4.10;2.70;;;16.80;99.90;;;;;;5021617;28;20037;-68
2022/07/29 04:24:23;;;;;;;3.83;2.58;;;16.90;99.90;;;;;;5013120;28;20065;-68
2022/07/29 04:26:49;;;;;;;4.13;2.30;;;16.90;99.90;;;;;;5017441;28;20060;-68
2022/07/29 04:29:14;;;;;;;2.90;2.40;;;17.00;99.90;;;;;;5030254;28;20095;-68
2022/07/29 04:31:41;;;;;;;4.18;2.38;;;17.00;99.90;;;;;;5028723;28;20095;-68
2022/07/29 04:34:07;;;;;;;4.70;2.47;;;17.00;99.90;;;;;;5031379;28;20025;-68
2022/07/29 04:36:32;;;;;;;5.93;2.55;;;17.10;99.90;;;;;;5029564;28;20040;-68
2022/07/29 04:38:58;;;;;;;3.42;2.20;;;17.20;99.90;;;;;;5027642;28;20025;-68
2022/07/29 04:41:24;;;;;;;2.72;2.20;;;17.20;99.90;;;;;;5024968;28;20026;-69
2022/07/29 04:43:50;;;;;;;3.67;2.67;;;17.30;99.90;;;;;;5026991;28;20033;-68
2022/07/29 04:46:15;;;;;;;3.10;2.40;;;17.40;99.90;;;;;;5023361;28;20045;-69
2022/07/29 04:48:41;;;;;;;5.28;2.17;;;17.50;99.90;;;;;;5027092;28;20450;-67
2022/07/29 04:51:07;;;;;;;3.33;2.30;;;17.60;99.90;;;;;;5030205;28;20474;-67
2022/07/29 04:53:32;;;;;;;3.63;2.20;;;17.60;99.90;;;;;;5028203;28;20044;-67
2022/07/29 04:55:58;;;;;;;3.83;2.35;;;17.70;99.90;;;;;;5029564;28;20033;-68
2022/07/29 04:58:24;;;;;;;2.80;2.10;;;17.70;99.90;;;;;;5029202;28;20039;-67
2022/07/29 05:00:50;;;;;;;4.05;2.42;;;17.60;99.90;;;;;;5031009;28;20403;-67
2022/07/29 05:03:17;;;;;;;4.30;2.40;;;17.70;99.90;;;;;;5015948;28;20045;-67
2022/07/29 05:05:42;;;;;;;3.53;2.63;;;17.70;99.90;;;;;;5012424;28;20572;-67
2022/07/29 05:08:10;;;;;;;3.08;2.40;;;17.70;99.90;;;;;;5012412;28;20053;-67
2022/07/29 05:10:37;;;;;;;4.72;2.38;;;17.70;99.90;;;;;;4992271;28;20026;-67
2022/07/29 05:13:07;;;;;;;4.25;2.50;;;17.70;99.90;;;;;;5011719;28;20029;-67
2022/07/29 05:15:36;;;;;;;5.07;2.60;;;17.70;99.90;;;;;;5011920;28;20430;-67
2022/07/29 05:18:02;;;;;;;3.20;2.55;;;17.80;99.90;;;;;;5011318;28;20428;-67
2022/07/29 05:20:29;;;;;;;3.95;2.75;;;17.80;99.90;;;;;;5011606;28;20038;-67
2022/07/29 05:22:59;;;;;;;4.43;2.70;;;17.90;99.90;;;;;;5012280;28;20390;-67
2022/07/29 05:25:25;;;;;;;4.28;2.67;;;17.90;99.90;;;;;;5012100;28;20066;-68
2022/07/29 05:27:51;;;;;;;4.65;3.00;;;18.00;99.90;;;;;;5012270;28;20143;-68
2022/07/29 05:30:17;;;;;;;6.18;2.88;;;18.00;99.90;;;;;;5012129;28;20034;-67
2022/07/29 05:32:43;;;;;;;5.95;3.00;;;18.10;99.90;;;;;;5012231;28;20133;-67
2022/07/29 05:35:09;;;;;;;4.40;2.70;;;18.10;99.90;;;;;;5011708;28;20514;-67
2022/07/29 05:37:34;;;;;;;2.95;2.40;;;18.10;99.90;;;;;;5011796;28;20390;-67
2022/07/29 05:40:00;;;;;;;3.08;2.42;;;18.20;99.90;;;;;;4993843;28;20118;-67
2022/07/29 05:42:25;;;;;;;3.67;2.45;;;18.20;99.90;;;;;;5011076;28;20080;-67
2022/07/29 05:44:52;;;;;;;3.63;2.17;;;18.30;99.90;;;;;;5010905;28;20133;-67
2022/07/29 05:47:17;;;;;;;2.20;1.60;;;18.30;99.90;;;;;;5011894;28;20026;-67
2022/07/29 05:49:43;;;;;;;3.70;1.90;;;18.40;99.90;;;;;;5028174;28;20047;-67
2022/07/29 05:52:09;;;;;;;2.47;1.63;;;18.50;99.90;;;;;;5031913;28;20471;-67
2022/07/29 05:54:35;;;;;;;2.45;1.88;;;18.60;99.90;;;;;;5031163;28;20033;-67
2022/07/29 05:57:01;;;;;;;1.98;1.60;;;18.70;99.90;;;;;;5031162;28;20029;-67
2022/07/29 05:59:27;;;;;;;2.00;1.60;;;18.80;99.90;;;;;;5031242;28;20099;-67
2022/07/29 06:01:52;;;;;;;3.75;2.00;;;18.90;99.90;;;;;;5030919;28;20050;-67
2022/07/29 06:04:18;;;;;;;3.63;2.28;;;19.00;99.90;;;;;;5031008;28;20389;-67
2022/07/29 06:06:43;;;;;;;4.72;2.10;;;19.10;99.90;;;;;;5005336;28;20041;-67
2022/07/29 06:09:09;;;;;;;3.53;1.95;;;19.20;99.90;;;;;;5015682;28;20092;-67
2022/07/29 06:11:34;;;;;;;2.58;1.63;;;19.30;99.90;;;;;;5025725;28;20036;-67
2022/07/29 06:14:00;;;;;;;3.83;1.65;;;19.40;99.90;;;;;;5028221;28;20053;-67
2022/07/29 06:16:25;;;;;;;3.08;1.52;;;19.60;99.90;;;;;;5031111;28;20047;-67
2022/07/29 06:18:52;;;;;;;3.03;1.70;;;19.70;99.90;;;;;;5030515;28;20355;-68
2022/07/29 06:21:20;;;;;;;1.80;1.30;;;19.80;99.90;;;;;;5028761;28;20026;-68
2022/07/29 06:23:46;;;;;;;4.20;1.40;;;19.90;99.90;;;;;;5007130;28;20064;-68
2022/07/29 06:26:12;;;;;;;2.08;1.52;;;20.00;99.90;;;;;;5013530;28;20050;-68
2022/07/29 06:28:37;;;;;;;1.67;1.52;;;20.20;99.90;;;;;;5012752;28;20030;-68
2022/07/29 06:31:03;;;;;;;4.82;1.55;;;20.30;99.90;;;;;;5010958;28;20108;-68
2022/07/29 06:33:29;;;;;;;3.35;1.70;;;20.40;99.90;;;;;;5012860;28;20034;-68
2022/07/29 06:35:54;;;;;;;5.28;1.70;;;20.50;99.90;;;;;;5010776;28;20045;-68
2022/07/29 06:38:20;;;;;;;3.42;1.50;;;20.60;99.90;;;;;;5010860;28;20451;-67
2022/07/29 06:41:02;;;;;;;3.13;1.40;;;20.70;99.90;;;;;;5010591;28;20034;-68
2022/07/29 06:43:41;;;;;;;2.72;1.30;;;20.80;99.90;;;;;;4992597;28;20025;-68
2022/07/29 06:46:08;;;;;;;2.22;1.60;;;20.80;99.90;;;;;;5020526;28;20553;-67
2022/07/29 06:48:35;;;;;;;1.65;1.35;;;20.90;99.90;;;;;;5018013;28;20359;-67
2022/07/29 06:51:02;;;;;;;3.53;1.38;;;20.90;99.90;;;;;;5030533;28;20022;-68
2022/07/29 06:53:28;;;;;;;2.47;1.50;;;20.90;99.90;;;;;;5033857;28;20037;-68
2022/07/29 06:55:53;;;;;;;2.83;1.38;;;21.00;99.90;;;;;;5035229;28;20425;-68
2022/07/29 06:58:20;;;;;;;1.90;1.40;;;21.20;99.90;;;;;;5034596;28;20035;-68
2022/07/29 07:00:47;;;;;;;1.50;1.40;;;21.20;99.90;;;;;;5034260;28;20184;-68
2022/07/29 07:03:13;;;;;;;2.53;1.60;;;21.30;99.90;;;;;;5034647;28;20037;-68
2022/07/29 07:05:39;;;;;;;2.90;1.30;;;21.30;99.90;;;;;;5034591;28;20096;-66
2022/07/29 07:08:05;;;;;;;2.47;1.50;;;21.30;99.90;;;;;;5033879;28;20102;-69
2022/07/29 07:10:30;;;;;;;1.90;1.30;;;21.40;99.90;;;;;;5027415;28;20025;-66
2022/07/29 07:12:56;;;;;;;2.10;1.30;;;21.60;99.90;;;;;;5007846;28;20516;-66
2022/07/29 07:15:22;;;;;;;2.00;1.50;;;21.60;99.90;;;;;;5032219;28;20048;-66
2022/07/29 07:17:48;;;;;;;2.05;1.30;;;21.70;99.90;;;;;;5014429;28;20026;-66
2022/07/29 07:20:15;;;;;;;2.58;1.48;;;21.70;99.90;;;;;;5030944;28;20131;-66
2022/07/29 07:22:40;;;;;;;1.98;1.27;;;21.70;99.90;;;;;;5030141;28;20029;-66
2022/07/29 07:25:06;;;;;;;3.55;1.40;;;21.80;99.90;;;;;;5029565;28;20375;-66
2022/07/29 07:27:32;;;;;;;2.95;1.20;;;21.80;99.90;;;;;;5002292;28;20084;-66
2022/07/29 07:29:57;;;;;;;2.55;1.08;;;21.80;99.90;;;;;;5029774;28;20033;-66
2022/07/29 07:32:23;;;;;;;2.28;1.15;;;21.80;99.90;;;;;;5029653;28;20025;-67
2022/07/29 07:34:49;;;;;;;4.13;2.00;;;21.80;99.90;;;;;;5029217;28;20064;-66
2022/07/29 07:37:14;;;;;;;5.25;1.80;;;21.90;99.90;;;;;;5029436;28;20017;-66
2022/07/29 07:39:40;;;;;;;2.97;1.40;;;22.00;99.90;;;;;;5029461;28;20378;-66
2022/07/29 07:42:06;;;;;;;4.18;1.52;;;22.00;99.90;;;;;;5029663;28;20037;-66
2022/07/29 07:44:32;;;;;;;3.42;1.38;;;22.20;99.90;;;;;;5001794;28;20025;-66
2022/07/29 07:46:58;;;;;;;2.53;1.23;;;22.20;99.90;;;;;;5020985;28;20022;-67
2022/07/29 07:49:23;;;;;;;2.75;1.50;;;22.30;99.90;;;;;;5022877;28;20033;-66
2022/07/29 07:51:49;;;;;;;3.33;1.45;;;22.30;99.90;;;;;;5029696;28;20408;-66
2022/07/29 07:54:15;;;;;;;2.00;1.55;;;22.40;99.90;;;;;;5029417;28;20535;-66
2022/07/29 07:56:40;;;;;;;1.70;1.25;;;22.50;99.90;;;;;;5028677;28;20335;-66
2022/07/29 07:59:06;;;;;;;3.33;1.40;;;22.40;99.90;;;;;;5029189;28;20120;-66
2022/07/29 08:01:31;;;;;;;3.00;1.67;;;22.50;99.90;;;;;;5028778;28;20458;-66
2022/07/29 08:03:57;;;;;;;1.70;1.40;;;22.60;99.90;;;;;;5029068;28;20029;-66
2022/07/29 08:06:24;;;;;;;2.85;1.52;;;22.70;99.90;;;;;;5027562;28;20095;-66
2022/07/29 08:08:50;;;;;;;2.30;1.38;;;22.80;99.90;;;;;;5001728;28;20374;-67
2022/07/29 08:11:16;;;;;;;3.53;1.40;;;22.90;99.90;;;;;;5020924;28;20034;-67
2022/07/29 08:13:42;;;;;;;6.68;1.33;;;22.90;99.90;;;;;;5026805;28;20026;-67
2022/07/29 08:16:12;;;;;;;2.65;1.40;;;23.00;99.90;;;;;;5023208;28;20021;-67
2022/07/29 08:18:38;;;;;;;4.18;1.70;;;23.10;99.90;;;;;;5025207;28;20029;-67
2022/07/29 08:21:05;;;;;;;2.90;1.50;;;23.20;99.90;;;;;;5009281;28;20103;-67
2022/07/29 08:23:38;;;;;;;2.53;1.55;;;23.30;99.90;;;;;;5009032;28;20045;-67
2022/07/29 08:26:10;;;;;;;2.80;1.67;;;23.50;99.90;;;;;;5008955;28;20025;-67
2022/07/29 08:28:39;;;;;;;3.15;1.70;;;23.60;99.90;;;;;;5014667;28;20121;-67
2022/07/29 08:31:06;;;;;;;2.08;1.67;;;23.80;99.90;;;;;;5017842;28;20041;-67
2022/07/29 08:33:33;;;;;;;3.45;1.40;;;23.90;99.90;;;;;;5024108;28;20021;-67
2022/07/29 08:35:59;;;;;;;2.78;1.20;;;24.10;99.90;;;;;;5020740;28;20044;-67
2022/07/29 08:38:25;;;;;;;3.50;1.30;;;24.20;99.90;;;;;;5017120;28;20037;-67
2022/07/29 08:40:52;;;;;;;2.47;1.40;;;24.30;99.90;;;;;;5008637;28;20790;-67
2022/07/29 08:43:18;;;;;;;5.38;1.60;;;24.50;99.90;;;;;;5008531;28;20026;-67
2022/07/29 08:45:46;;;;;;;4.55;1.63;;;24.80;99.90;;;;;;5010725;28;20032;-67
2022/07/29 08:48:14;;;;;;;4.57;1.67;;;24.80;99.90;;;;;;5028082;28;20041;-67
2022/07/29 08:50:42;;;;;;;5.68;2.10;;;24.90;99.90;;;;;;5008442;28;20072;-67
2022/07/29 08:53:11;;;;;;;2.85;1.88;;;25.10;99.90;;;;;;5007144;28;20029;-67
2022/07/29 08:55:40;;;;;;;2.55;1.73;;;25.10;99.90;;;;;;5002050;28;20041;-67
2022/07/29 08:58:07;;;;;;;3.35;1.80;;;25.10;99.90;;;;;;5001604;28;20031;-67
2022/07/29 09:00:35;;;;;;;3.53;1.80;;;25.10;99.90;;;;;;5002097;28;20058;-67
2022/07/29 09:03:02;;;;;;;3.05;1.90;;;25.00;99.90;;;;;;5006980;28;20022;-67
2022/07/29 09:05:28;;;;;;;3.50;1.67;;;25.10;99.90;;;;;;5003478;28;20075;-67
2022/07/29 09:07:54;;;;;;;8.25;2.20;;;25.10;99.90;;;;;;5000955;28;20022;-67
2022/07/29 09:10:20;;;;;;;3.63;2.10;;;25.10;99.90;;;;;;5003972;28;20022;-67
2022/07/29 09:12:46;;;;;;;3.58;1.90;;;25.10;99.90;;;;;;5002405;28;20045;-67
2022/07/29 09:15:11;;;;;;;3.22;1.85;;;25.20;99.90;;;;;;4986507;28;20026;-68
2022/07/29 09:17:45;;;;;;;2.55;1.85;;;25.40;99.90;;;;;;5003969;28;20531;-67
2022/07/29 09:20:13;;;;;;;2.92;1.92;;;25.50;99.90;;;;;;5000911;28;20034;-67
2022/07/29 09:22:39;;;;;;;3.95;1.77;;;25.60;99.90;;;;;;5007412;28;20097;-67
2022/07/29 09:25:05;;;;;;;3.28;2.03;;;25.70;99.90;;;;;;5004212;28;20056;-68
2022/07/29 09:27:31;;;;;;;3.00;1.88;;;25.80;99.90;;;;;;5004363;28;20420;-67
2022/07/29 09:30:05;;;;;;;3.40;1.90;;;25.90;99.90;;;;;;5005281;28;20060;-68
2022/07/29 09:32:32;;;;;;;3.13;1.90;;;25.90;99.90;;;;;;5005569;28;20080;-67
2022/07/29 09:35:17;;;;;;;2.67;1.80;;;25.80;99.90;;;;;;5003305;28;20029;-67
2022/07/29 09:37:44;;;;;;;2.83;1.80;;;25.70;99.90;;;;;;5002209;28;20053;-67
2022/07/29 09:40:18;;;;;;;3.65;1.70;;;25.70;99.90;;;;;;5010695;28;20062;-68
2022/07/29 09:42:45;;;;;;;3.60;1.83;;;25.70;99.90;;;;;;5011228;28;20025;-67
2022/07/29 09:45:12;;;;;;;4.60;1.85;;;25.90;99.90;;;;;;5010852;28;20026;-67
2022/07/29 09:47:50;;;;;;;3.83;1.88;;;26.00;99.90;;;;;;5025453;28;20025;-67
2022/07/29 09:50:16;;;;;;;2.67;2.03;;;25.90;99.90;;;;;;5006563;28;20039;-67
2022/07/29 09:52:47;;;;;;;3.40;2.03;;;25.90;99.90;;;;;;5031356;28;20026;-67
2022/07/29 09:55:12;;;;;;;6.03;1.70;;;25.90;99.90;;;;;;5025459;28;20028;-73
2022/07/29 09:57:38;;;;;;;2.75;1.90;;;25.80;99.90;;;;;;5013720;28;20136;-67
2022/07/29 10:00:16;;;;;;;5.53;2.10;;;25.70;99.90;;;;;;5008090;28;20108;-67
2022/07/29 10:02:43;;;;;;;4.05;1.92;;;25.70;99.90;;;;;;5028048;28;20030;-67
2022/07/29 10:05:25;;;;;;;3.13;2.08;;;25.90;99.90;;;;;;5025636;28;20028;-66
2022/07/29 10:07:56;;;;;;;4.43;1.95;;;26.00;99.90;;;;;;4994481;28;20029;-67
2022/07/29 10:10:23;;;;;;;3.17;2.05;;;26.10;99.90;;;;;;4994703;28;20030;-67
2022/07/29 10:13:00;;;;;;;6.35;2.25;;;26.30;99.90;;;;;;5016494;28;20026;-66
2022/07/29 10:15:28;;;;;;;4.00;1.90;;;26.80;99.90;;;;;;5001598;28;20088;-66
2022/07/29 10:17:55;;;;;;;2.95;2.25;;;27.10;99.90;;;;;;5012690;28;20171;-67
2022/07/29 10:20:22;;;;;;;5.88;1.95;;;27.40;99.90;;;;;;5012345;28;20038;-66
2022/07/29 10:22:49;;;;;;;2.10;1.85;;;27.60;99.90;;;;;;5002245;28;20022;-66
2022/07/29 10:25:17;;;;;;;4.45;2.10;;;27.90;99.90;;;;;;5012353;28;20022;-67
2022/07/29 10:27:44;;;;;;;5.72;2.08;;;27.90;99.90;;;;;;5016312;28;20017;-66
2022/07/29 10:30:11;;;;;;;3.83;1.70;;;28.00;99.90;;;;;;5018629;28;20117;-67
2022/07/29 10:33:07;;;;;;;8.07;1.92;;;28.30;99.90;;;;;;5014337;28;20049;-67
2022/07/29 10:36:09;;;;;;;5.85;2.10;;;28.70;99.90;;;;;;5018284;28;20072;-67
2022/07/29 10:38:40;;;;;;;4.28;1.73;;;29.10;99.90;;;;;;5014527;28;20030;-66
2022/07/29 10:41:46;;;;;;;6.75;2.15;;;29.20;99.90;;;;;;5011852;28;20026;-67
2022/07/29 10:44:23;;;;;;;4.95;2.20;;;29.30;99.90;;;;;;5011723;28;20083;-67
2022/07/29 10:46:50;;;;;;;2.97;1.70;;;29.40;99.90;;;;;;5013938;28;20021;-67
2022/07/29 10:49:26;;;;;;;2.63;1.90;;;29.30;99.90;;;;;;5011661;28;20026;-67
2022/07/29 10:51:55;;;;;;;6.40;2.25;;;29.10;99.90;;;;;;4996684;28;20022;-66
2022/07/29 10:54:36;;;;;;;9.90;1.88;;;28.80;99.90;;;;;;5007654;28;20022;-67
2022/07/29 10:57:26;;;;;;;5.65;1.88;;;28.70;99.90;;;;;;5008727;28;20029;-67
2022/07/29 11:00:01;;;;;;;5.20;1.92;;;28.40;99.90;;;;;;5009155;28;20085;-66
2022/07/29 11:02:35;;;;;;;5.80;2.20;;;28.20;99.90;;;;;;5005997;28;20042;-67
2022/07/29 11:05:05;;;;;;;4.53;2.03;;;28.30;99.90;;;;;;5004771;28;20052;-67
2022/07/29 11:07:35;;;;;;;4.25;2.15;;;28.40;99.90;;;;;;5004926;28;20774;-67
2022/07/29 11:10:30;;;;;;;4.30;2.10;;;28.70;99.90;;;;;;5007660;28;20021;-66
2022/07/29 11:12:56;;;;;;;4.60;2.15;;;29.10;99.90;;;;;;4990018;28;20455;-66
2022/07/29 11:15:22;;;;;;;3.40;1.90;;;29.00;99.90;;;;;;5010685;28;20045;-66
2022/07/29 11:17:53;;;;;;;5.20;1.92;;;29.20;99.90;;;;;;5006689;28;20532;-67
2022/07/29 11:20:41;;;;;;;8.15;2.00;;;29.10;99.90;;;;;;4989766;28;20069;-68
2022/07/29 11:23:39;;;;;;;5.85;2.08;;;29.40;99.90;;;;;;5022682;28;20365;-68
2022/07/29 11:26:24;;;;;;;2.67;1.80;;;29.30;99.90;;;;;;5010724;28;20033;-68
2022/07/29 11:28:51;;;;;;;6.75;1.90;;;29.30;99.90;;;;;;5018013;28;20022;-67
2022/07/29 11:31:31;;;;;;;6.32;1.75;;;29.10;99.90;;;;;;5010653;28;20124;-68
2022/07/29 11:33:57;;;;;;;2.40;1.60;;;29.00;99.90;;;;;;5008740;28;20030;-68
2022/07/29 11:36:23;;;;;;;4.43;1.85;;;29.10;99.90;;;;;;5026567;28;20040;-67
2022/07/29 11:38:48;;;;;;;4.47;1.70;;;28.90;99.90;;;;;;5011360;28;20018;-67
2022/07/29 11:41:17;;;;;;;4.88;2.10;;;28.80;99.90;;;;;;5021033;28;20025;-67
2022/07/29 11:43:47;;;;;;;4.32;1.85;;;28.70;99.90;;;;;;5012871;28;20422;-67
2022/07/29 11:46:14;;;;;;;3.20;1.75;;;28.70;99.90;;;;;;5003770;28;20468;-67
2022/07/29 11:48:43;;;;;;;6.25;2.00;;;28.60;99.90;;;;;;5011235;28;20467;-68
2022/07/29 11:51:11;;;;;;;4.97;1.77;;;28.50;99.90;;;;;;5011115;28;20061;-68
2022/07/29 11:53:38;;;;;;;4.40;2.10;;;28.40;99.90;;;;;;5017599;28;20021;-68
2022/07/29 11:56:07;;;;;;;3.33;1.80;;;28.30;99.90;;;;;;5030934;28;20338;-67
2022/07/29 11:58:33;;;;;;;5.55;2.10;;;28.20;99.90;;;;;;5025254;28;20490;-68
2022/07/29 12:00:59;;;;;;;7.00;1.67;;;28.20;99.90;;;;;;5019349;28;20045;-67
2022/07/29 12:03:27;;;;;;;3.38;1.90;;;28.20;99.90;;;;;;5023591;28;20060;-68
2022/07/29 12:05:52;;;;;;;4.15;1.65;;;28.10;99.90;;;;;;5010536;28;20105;-67
2022/07/29 12:08:21;;;;;;;5.88;1.90;;;28.20;99.90;;;;;;5024160;28;20578;-68
2022/07/29 12:10:51;;;;;;;3.72;1.80;;;28.20;99.90;;;;;;5010644;28;20113;-68
2022/07/29 12:13:19;;;;;;;5.32;1.80;;;28.10;99.90;;;;;;5013551;28;20510;-66
2022/07/29 12:15:53;;;;;;;10.65;1.90;;;28.20;99.90;;;;;;5021823;28;20268;-67
2022/07/29 12:18:20;;;;;;;4.68;1.70;;;28.30;99.90;;;;;;5030410;28;20467;-66
2022/07/29 12:20:46;;;;;;;5.07;2.00;;;28.10;99.90;;;;;;5026814;28;20042;-67
2022/07/29 12:23:13;;;;;;;5.95;1.88;;;27.90;99.90;;;;;;5025232;28;20021;-67
2022/07/29 12:25:40;;;;;;;6.47;1.85;;;27.90;99.90;;;;;;5015581;28;20522;-66
2022/07/29 12:28:12;;;;;;;3.80;1.90;;;27.80;99.90;;;;;;5014205;28;20029;-66
2022/07/29 12:30:44;;;;;;;7.57;1.95;;;27.70;99.90;;;;;;4999960;28;20094;-66
2022/07/29 12:33:16;;;;;;;2.47;1.70;;;27.70;99.90;;;;;;5023624;28;20018;-67
2022/07/29 12:35:44;;;;;;;4.95;1.90;;;27.50;99.90;;;;;;5010430;28;20034;-67
2022/07/29 12:38:12;;;;;;;4.35;1.70;;;27.50;99.90;;;;;;5014276;28;20021;-67
2022/07/29 12:40:38;;;;;;;5.13;1.83;;;27.40;99.90;;;;;;5029198;28;20037;-67
2022/07/29 12:43:13;;;;;;;3.55;2.10;;;27.20;99.90;;;;;;5034175;28;20017;-67
2022/07/29 12:45:44;;;;;;;3.60;1.83;;;27.10;99.90;;;;;;5032719;28;20025;-67
2022/07/29 12:48:10;;;;;;;5.85;1.90;;;26.90;99.90;;;;;;5027931;28;20018;-67
2022/07/29 12:50:51;;;;;;;10.05;2.20;;;26.70;99.90;;;;;;5029112;28;20041;-67
2022/07/29 12:53:16;;;;;;;3.45;1.90;;;26.60;99.90;;;;;;5019771;28;20032;-67
2022/07/29 12:55:54;;;;;;;5.03;1.80;;;26.50;99.90;;;;;;5033581;28;20033;-67
2022/07/29 12:58:27;;;;;;;4.03;1.75;;;26.30;99.90;;;;;;5029581;28;20521;-66
2022/07/29 13:01:22;;;;;;;6.35;2.00;;;26.20;99.90;;;;;;5019071;28;20084;-66